Time,TemperatureF,DewpointF,PressureIn,WindDirection,WindDirectionDegrees,WindSpeedMPH,WindSpeedGustMPH,Humidity,HourlyPrecipIn,Conditions,Clouds,dailyrainin,SoftwareType,DateUTC
2013-09-03 00:14:00,79.7,77.0,29.91,SSW,194,0.0,0.0,91,0.00,,,0.00,weatherlink.com 1.10,2013-09-03 05:14:00,
2013-09-03 00:29:00,79.2,77.0,29.92,SSW,194,0.0,0.0,92,0.00,,,0.00,weatherlink.com 1.10,2013-09-03 05:29:00,
2013-09-03 00:44:00,79.0,77.0,29.92,SSW,194,0.0,0.0,92,0.00,,,0.00,weatherlink.com 1.10,2013-09-03 05:44:00,
2013-09-03 00:59:00,78.6,76.0,29.92,SSW,194,0.0,0.0,92,0.00,,,0.00,weatherlink.com 1.10,2013-09-03 05:59:00,
2013-09-03 01:14:00,78.3,76.0,29.91,SSW,194,0.0,0.0,93,0.00,,,0.00,weatherlink.com 1.10,2013-09-03 06:14:00,
2013-09-03 01:29:00,78.3,76.0,29.91,SSW,194,0.0,0.0,93,0.00,,,0.00,weatherlink.com 1.10,2013-09-03 06:29:00,
2013-09-03 01:44:00,78.4,77.0,29.91,SSW,194,0.0,0.0,94,0.00,,,0.00,weatherlink.com 1.10,2013-09-03 06:44:00,
2013-09-03 01:59:00,78.7,77.0,29.92,SSW,194,0.0,0.0,94,0.00,,,0.00,weatherlink.com 1.10,2013-09-03 06:59:00,
2013-09-03 02:14:00,79.0,77.0,29.92,SSW,194,0.0,0.0,94,0.00,,,0.00,weatherlink.com 1.10,2013-09-03 07:14:00,
2013-09-03 02:29:00,79.3,77.0,29.91,SSW,194,0.0,0.0,93,0.00,,,0.00,weatherlink.com 1.10,2013-09-03 07:29:00,
2013-09-03 02:44:00,79.5,77.0,29.91,West,269,1.0,2.0,92,0.00,,,0.00,weatherlink.com 1.10,2013-09-03 07:44:00,
2013-09-03 02:59:00,79.6,77.0,29.91,NW,314,0.0,2.0,92,0.00,,,0.00,weatherlink.com 1.10,2013-09-03 07:59:00,
2013-09-03 03:14:00,79.4,77.0,29.91,NW,314,0.0,1.0,92,0.00,,,0.00,weatherlink.com 1.10,2013-09-03 08:14:00,
2013-09-03 03:29:00,78.8,76.0,29.90,NW,315,0.0,0.0,92,0.00,,,0.00,weatherlink.com 1.10,2013-09-03 08:29:00,
2013-09-03 03:44:00,78.4,76.0,29.90,NW,314,0.0,0.0,93,0.00,,,0.00,weatherlink.com 1.10,2013-09-03 08:44:00,
2013-09-03 03:59:00,78.0,76.0,29.91,NW,314,0.0,0.0,93,0.00,,,0.00,weatherlink.com 1.10,2013-09-03 08:59:00,
2013-09-03 04:14:00,77.6,76.0,29.90,NW,315,0.0,0.0,94,0.00,,,0.00,weatherlink.com 1.10,2013-09-03 09:14:00,
2013-09-03 04:29:00,77.5,76.0,29.90,NW,314,0.0,0.0,94,0.00,,,0.00,weatherlink.com 1.10,2013-09-03 09:29:00,
2013-09-03 04:44:00,77.4,76.0,29.91,NW,314,0.0,0.0,94,0.00,,,0.00,weatherlink.com 1.10,2013-09-03 09:44:00,
2013-09-03 04:59:00,77.8,76.0,29.91,NW,315,1.0,1.0,95,0.00,,,0.00,weatherlink.com 1.10,2013-09-03 09:59:00,
2013-09-03 05:14:00,78.6,77.0,29.91,WNW,294,2.0,4.0,93,0.00,,,0.00,weatherlink.com 1.10,2013-09-03 10:14:00,
2013-09-03 05:29:00,78.9,77.0,29.91,WNW,291,0.0,3.0,92,0.00,,,0.00,weatherlink.com 1.10,2013-09-03 10:29:00,
2013-09-03 05:44:00,79.0,76.0,29.92,West,269,1.0,3.0,91,0.00,,,0.00,weatherlink.com 1.10,2013-09-03 10:44:00,
2013-09-03 05:59:00,79.0,76.0,29.92,WNW,290,2.0,3.0,91,0.00,,,0.00,weatherlink.com 1.10,2013-09-03 10:59:00,
2013-09-03 06:14:00,78.9,76.0,29.92,WNW,288,0.0,2.0,91,0.00,,,0.00,weatherlink.com 1.10,2013-09-03 11:14:00,
2013-09-03 06:29:00,78.5,76.0,29.93,WNW,288,0.0,1.0,92,0.00,,,0.00,weatherlink.com 1.10,2013-09-03 11:29:00,
2013-09-03 06:44:00,78.3,76.0,29.93,NW,309,0.0,1.0,92,0.00,,,0.00,weatherlink.com 1.10,2013-09-03 11:44:00,
2013-09-03 06:59:00,78.2,76.0,29.93,NW,316,0.0,3.0,92,0.00,,,0.00,weatherlink.com 1.10,2013-09-03 11:59:00,
2013-09-03 07:14:00,78.6,76.0,29.93,NW,308,0.0,3.0,92,0.00,,,0.00,weatherlink.com 1.10,2013-09-03 12:14:00,
2013-09-03 07:29:00,79.2,76.0,29.94,WNW,300,3.0,3.0,91,0.00,,,0.00,weatherlink.com 1.10,2013-09-03 12:29:00,
2013-09-03 07:44:00,80.1,77.0,29.95,WNW,291,1.0,4.0,90,0.00,,,0.00,weatherlink.com 1.10,2013-09-03 12:44:00,
2013-09-03 08:00:00,81.0,77.0,29.95,WNW,285,2.0,6.0,88,0.00,,,0.00,weatherlink.com 1.10,2013-09-03 13:00:00,
2013-09-03 08:15:00,81.4,77.0,29.95,WNW,291,2.0,4.0,87,0.00,,,0.00,weatherlink.com 1.10,2013-09-03 13:15:00,
2013-09-03 08:30:00,81.3,77.0,29.95,NW,315,1.0,6.0,87,0.00,,,0.00,weatherlink.com 1.10,2013-09-03 13:30:00,
2013-09-03 08:45:00,81.5,77.0,29.96,NW,304,2.0,7.0,87,0.00,,,0.00,weatherlink.com 1.10,2013-09-03 13:45:00,
2013-09-03 09:00:00,82.1,78.0,29.96,West,277,1.0,5.0,86,0.00,,,0.00,weatherlink.com 1.10,2013-09-03 14:00:00,
2013-09-03 09:15:00,82.8,78.0,29.96,WNW,294,1.0,4.0,86,0.00,,,0.00,weatherlink.com 1.10,2013-09-03 14:15:00,
2013-09-03 09:30:00,83.9,79.0,29.96,NW,307,2.0,4.0,84,0.00,,,0.00,weatherlink.com 1.10,2013-09-03 14:30:00,
2013-09-03 09:45:00,84.6,78.0,29.96,NW,322,3.0,4.0,81,0.00,,,0.00,weatherlink.com 1.10,2013-09-03 14:45:00,
2013-09-03 10:00:00,85.3,77.0,29.96,NW,304,3.0,6.0,77,0.00,,,0.00,weatherlink.com 1.10,2013-09-03 15:00:00,
2013-09-03 10:15:00,86.3,77.0,29.96,WNW,291,4.0,8.0,73,0.00,,,0.00,weatherlink.com 1.10,2013-09-03 15:15:00,
2013-09-03 10:30:00,87.0,77.0,29.97,NNW,328,3.0,5.0,72,0.00,,,0.00,weatherlink.com 1.10,2013-09-03 15:30:00,
2013-09-03 10:45:00,87.9,77.0,29.96,WNW,302,0.0,5.0,70,0.00,,,0.00,weatherlink.com 1.10,2013-09-03 15:45:00,
2013-09-03 11:00:00,88.5,76.0,29.97,WNW,302,2.0,6.0,66,0.00,,,0.00,weatherlink.com 1.10,2013-09-03 16:00:00,
2013-09-03 11:15:00,89.4,76.0,29.97,WNW,285,2.0,6.0,65,0.00,,,0.00,weatherlink.com 1.10,2013-09-03 16:15:00,
2013-09-03 11:30:00,90.3,76.0,29.96,WNW,283,0.0,4.0,62,0.00,,,0.00,weatherlink.com 1.10,2013-09-03 16:30:00,
2013-09-03 11:45:00,90.9,77.0,29.96,NW,309,0.0,6.0,63,0.00,,,0.00,weatherlink.com 1.10,2013-09-03 16:45:00,
2013-09-03 12:00:00,91.4,77.0,29.96,WNW,283,3.0,4.0,62,0.00,,,0.00,weatherlink.com 1.10,2013-09-03 17:00:00,
2013-09-03 12:15:00,92.0,76.0,29.95,WNW,286,1.0,6.0,60,0.00,,,0.00,weatherlink.com 1.10,2013-09-03 17:15:00,
2013-09-03 12:30:00,93.0,76.0,29.95,WNW,283,0.0,4.0,57,0.00,,,0.00,weatherlink.com 1.10,2013-09-03 17:30:00,
2013-09-03 12:45:00,94.1,77.0,29.94,NW,323,0.0,3.0,58,0.00,,,0.00,weatherlink.com 1.10,2013-09-03 17:45:00,
2013-09-03 13:00:00,95.2,77.0,29.94,WNW,288,0.0,3.0,56,0.00,,,0.00,weatherlink.com 1.10,2013-09-03 18:00:00,
2013-09-03 13:15:00,94.2,76.0,29.93,East,90,0.0,7.0,55,0.00,,,0.00,weatherlink.com 1.10,2013-09-03 18:15:00,
2013-09-03 13:30:00,93.9,76.0,29.92,WNW,287,2.0,6.0,56,0.00,,,0.00,weatherlink.com 1.10,2013-09-03 18:30:00,
2013-09-03 13:45:00,94.7,78.0,29.91,WNW,294,1.0,5.0,58,0.00,,,0.00,weatherlink.com 1.10,2013-09-03 18:45:00,
2013-09-03 14:01:00,97.2,78.0,29.91,SW,222,1.0,6.0,54,0.00,,,0.00,weatherlink.com 1.10,2013-09-03 19:01:00,
2013-09-03 14:16:00,98.2,77.0,29.90,South,189,5.0,7.0,50,0.00,,,0.00,weatherlink.com 1.10,2013-09-03 19:16:00,
2013-09-03 14:31:00,97.4,77.0,29.89,SSE,148,0.0,8.0,52,0.00,,,0.00,weatherlink.com 1.10,2013-09-03 19:31:00,
2013-09-03 14:46:00,97.3,78.0,29.88,WSW,248,1.0,8.0,54,0.00,,,0.00,weatherlink.com 1.10,2013-09-03 19:46:00,
2013-09-03 15:01:00,96.7,76.0,29.87,WSW,249,0.0,3.0,52,0.00,,,0.00,weatherlink.com 1.10,2013-09-03 20:01:00,
2013-09-03 15:16:00,95.4,76.0,29.87,SE,136,2.0,6.0,53,0.00,,,0.00,weatherlink.com 1.10,2013-09-03 20:16:00,
2013-09-03 15:31:00,92.7,77.0,29.87,South,191,3.0,8.0,61,0.00,,,0.00,weatherlink.com 1.10,2013-09-03 20:31:00,
2013-09-03 15:46:00,90.7,78.0,29.88,South,186,8.0,10.0,66,0.00,,,0.00,weatherlink.com 1.10,2013-09-03 20:46:00,
2013-09-03 16:01:00,90.0,78.0,29.87,SSE,160,0.0,5.0,68,0.00,,,0.00,weatherlink.com 1.10,2013-09-03 21:01:00,
2013-09-03 16:16:00,89.4,78.0,29.88,SSW,195,4.0,6.0,69,0.00,,,0.00,weatherlink.com 1.10,2013-09-03 21:16:00,
2013-09-03 16:31:00,88.6,78.0,29.86,SSW,201,3.0,9.0,70,0.00,,,0.00,weatherlink.com 1.10,2013-09-03 21:31:00,
2013-09-03 16:46:00,87.9,77.0,29.87,SSW,210,2.0,9.0,70,0.00,,,0.00,weatherlink.com 1.10,2013-09-03 21:46:00,
2013-09-03 17:01:00,80.3,69.0,29.91,ESE,115,10.0,14.0,69,0.35,,,0.35,weatherlink.com 1.10,2013-09-03 22:01:00,
2013-09-03 17:16:00,74.0,71.0,29.88,WNW,300,1.0,2.0,89,0.68,,,0.68,weatherlink.com 1.10,2013-09-03 22:16:00,
2013-09-03 17:31:00,73.2,71.0,29.88,East,98,2.0,6.0,91,0.73,,,0.73,weatherlink.com 1.10,2013-09-03 22:31:00,
2013-09-03 17:46:00,73.1,71.0,29.88,NNE,21,0.0,1.0,92,0.73,,,0.73,weatherlink.com 1.10,2013-09-03 22:46:00,
2013-09-03 18:01:00,73.6,72.0,29.88,NNE,20,0.0,1.0,93,0.36,,,0.73,weatherlink.com 1.10,2013-09-03 23:01:00,
2013-09-03 18:16:00,73.8,72.0,29.88,SSE,166,0.0,0.0,94,0.05,,,0.73,weatherlink.com 1.10,2013-09-03 23:16:00,
2013-09-03 18:31:00,74.2,72.0,29.89,NW,309,2.0,4.0,94,0.00,,,0.73,weatherlink.com 1.10,2013-09-03 23:31:00,
2013-09-03 18:46:00,74.7,73.0,29.89,NW,309,0.0,0.0,94,0.00,,,0.73,weatherlink.com 1.10,2013-09-03 23:46:00,
2013-09-03 19:01:00,75.2,73.0,29.89,SSW,195,0.0,1.0,94,0.00,,,0.73,weatherlink.com 1.10,2013-09-04 00:01:00,
2013-09-03 19:16:00,75.2,73.0,29.90,SSW,195,0.0,0.0,94,0.00,,,0.73,weatherlink.com 1.10,2013-09-04 00:16:00,
2013-09-03 19:31:00,75.4,74.0,29.90,SSE,158,1.0,2.0,95,0.00,,,0.73,weatherlink.com 1.10,2013-09-04 00:31:00,
2013-09-03 19:46:00,75.7,74.0,29.89,SSE,158,0.0,0.0,94,0.00,,,0.73,weatherlink.com 1.10,2013-09-04 00:46:00,
2013-09-03 20:01:00,76.0,75.0,29.88,SSE,158,0.0,0.0,95,0.00,,,0.73,weatherlink.com 1.10,2013-09-04 01:01:00,
2013-09-03 20:16:00,76.4,75.0,29.88,SSE,158,0.0,1.0,95,0.00,,,0.73,weatherlink.com 1.10,2013-09-04 01:16:00,
2013-09-03 20:31:00,76.2,75.0,29.88,SSE,158,0.0,0.0,95,0.00,,,0.73,weatherlink.com 1.10,2013-09-04 01:31:00,
2013-09-03 20:46:00,76.2,75.0,29.88,SSE,158,0.0,1.0,95,0.00,,,0.73,weatherlink.com 1.10,2013-09-04 01:46:00,
2013-09-03 21:01:00,76.2,75.0,29.89,SSE,158,0.0,0.0,95,0.00,,,0.73,weatherlink.com 1.10,2013-09-04 02:01:00,
2013-09-03 21:16:00,76.0,75.0,29.90,SSE,158,0.0,0.0,95,0.00,,,0.73,weatherlink.com 1.10,2013-09-04 02:16:00,
2013-09-03 21:31:00,76.1,75.0,29.91,SSE,158,0.0,1.0,95,0.00,,,0.73,weatherlink.com 1.10,2013-09-04 02:31:00,
2013-09-03 21:46:00,75.9,74.0,29.91,SSE,158,0.0,0.0,95,0.00,,,0.73,weatherlink.com 1.10,2013-09-04 02:46:00,
2013-09-03 22:01:00,76.3,75.0,29.92,SSE,158,0.0,0.0,96,0.00,,,0.73,weatherlink.com 1.10,2013-09-04 03:01:00,
2013-09-03 22:16:00,76.3,75.0,29.93,SSE,158,0.0,0.0,96,0.00,,,0.73,weatherlink.com 1.10,2013-09-04 03:16:00,
2013-09-03 22:31:00,76.0,75.0,29.94,SSE,158,0.0,0.0,96,0.01,,,0.74,weatherlink.com 1.10,2013-09-04 03:31:00,
2013-09-03 22:46:00,75.9,75.0,29.93,SSE,158,0.0,0.0,96,0.01,,,0.74,weatherlink.com 1.10,2013-09-04 03:46:00,
2013-09-03 23:01:00,75.5,74.0,29.93,SSE,158,0.0,0.0,96,0.01,,,0.74,weatherlink.com 1.10,2013-09-04 04:01:00,
2013-09-03 23:16:00,75.2,74.0,29.94,SSE,158,0.0,0.0,96,0.01,,,0.74,weatherlink.com 1.10,2013-09-04 04:16:00,
2013-09-03 23:31:00,75.1,74.0,29.94,SSE,158,0.0,0.0,96,0.00,,,0.74,weatherlink.com 1.10,2013-09-04 04:31:00,
2013-09-03 23:46:00,75.3,74.0,29.93,SSE,158,0.0,0.0,96,0.00,,,0.74,weatherlink.com 1.10,2013-09-04 04:46:00,